Time;durP1;ratioP1;P1;durP2;ratioP2;P2;SDS_P1;SDS_P2;PMS_P1;PMS_P2;Temp;Humidity;BMP_temperature;BMP_pressure;BME280_temperature;BME280_humidity;BME280_pressure;Samples;Min_cycle;Max_cycle;Signal;HPM_P1;HPM_P2
2021/07/11 00:00:18;;;;;;;4.15;2.63;;;;;;;30.68;23.79;94353.81;5095222;28;20074;-53
2021/07/11 00:02:45;;;;;;;5.45;2.65;;;;;;;30.63;23.91;94357.00;5095068;28;20051;-53
2021/07/11 00:05:15;;;;;;;3.33;2.25;;;;;;;31.06;23.45;94361.56;5094937;28;20446;-51
2021/07/11 00:07:42;;;;;;;5.47;2.63;;;;;;;30.99;23.77;94364.41;5094609;28;20047;-53
2021/07/11 00:10:10;;;;;;;3.65;2.42;;;;;;;31.32;23.30;94359.13;5095056;28;20051;-53
2021/07/11 00:12:37;;;;;;;4.15;2.28;;;;;;;30.84;23.57;94366.63;5094443;28;20043;-54
2021/07/11 00:15:07;;;;;;;2.83;2.00;;;;;;;30.96;23.61;94367.94;5094009;28;20056;-52
2021/07/11 00:17:35;;;;;;;4.30;2.70;;;;;;;31.22;23.32;94361.63;5094308;28;20054;-52
2021/07/11 00:20:03;;;;;;;4.70;2.50;;;;;;;30.73;24.54;94363.41;5076731;28;20047;-50
2021/07/11 00:22:30;;;;;;;3.60;2.75;;;;;;;30.72;24.22;94353.03;5094798;28;20048;-52
2021/07/11 00:24:57;;;;;;;2.90;2.58;;;;;;;30.68;24.44;94359.22;5094053;28;20469;-53
2021/07/11 00:27:25;;;;;;;5.45;3.08;;;;;;;30.98;23.88;94354.81;5094339;28;20058;-52
2021/07/11 00:29:58;;;;;;;3.40;2.90;;;;;;;31.16;23.94;94355.19;5094732;28;20051;-53
2021/07/11 00:32:25;;;;;;;4.70;2.50;;;;;;;31.12;24.33;94359.13;5094762;28;20349;-52
2021/07/11 00:34:53;;;;;;;4.63;2.53;;;;;;;31.04;24.23;94353.13;5094123;28;20046;-55
2021/07/11 00:37:20;;;;;;;3.58;2.97;;;;;;;30.61;24.81;94362.06;5094679;28;20052;-54
2021/07/11 00:39:49;;;;;;;5.97;2.88;;;;;;;30.80;24.74;94354.41;5076446;28;20051;-51
2021/07/11 00:42:16;;;;;;;5.05;2.92;;;;;;;30.44;24.93;94362.34;5073264;28;20087;-52
2021/07/11 00:44:44;;;;;;;3.22;2.70;;;;;;;30.91;24.77;94354.94;5080754;28;20055;-52
2021/07/11 00:47:12;;;;;;;3.75;2.80;;;;;;;30.52;24.98;94359.13;5093480;28;20043;-51
2021/07/11 00:49:43;;;;;;;3.75;2.90;;;;;;;30.83;24.94;94361.66;5074641;28;20051;-53
2021/07/11 00:52:12;;;;;;;3.35;2.80;;;;;;;30.94;25.11;94365.66;5085704;28;20068;-51
2021/07/11 00:54:41;;;;;;;4.72;2.95;;;;;;;30.27;26.21;94356.13;5100036;28;20048;-54
2021/07/11 00:57:12;;;;;;;5.78;3.00;;;;;;;30.99;24.67;94362.47;5094517;28;20052;-52
2021/07/11 00:59:42;;;;;;;;;;;;;;;30.71;25.30;94354.97;5094747;28;20048;-52
2021/07/11 01:02:11;;;;;;;5.60;3.20;;;;;;;30.82;24.87;94352.78;5093291;28;20025;-53
2021/07/11 01:04:51;;;;;;;4.53;2.92;;;;;;;30.98;25.01;94354.81;5093312;28;20470;-52
2021/07/11 01:07:32;;;;;;;5.75;2.83;;;;;;;30.62;25.53;94354.72;5093424;28;20060;-54
2021/07/11 01:10:05;;;;;;;4.95;3.17;;;;;;;30.71;25.60;94356.88;5092506;28;20044;-52
2021/07/11 01:12:40;;;;;;;4.75;2.75;;;;;;;30.50;25.63;94348.00;5093286;28;20051;-51
2021/07/11 01:15:08;;;;;;;4.57;2.72;;;;;;;30.71;25.45;94348.78;5076373;28;20066;-48
2021/07/11 01:17:35;;;;;;;4.35;2.90;;;;;;;30.17;26.30;94348.97;5092621;28;20051;-52
2021/07/11 01:20:28;;;;;;;3.08;2.65;;;;;;;30.33;26.03;94344.44;5092347;28;20044;-52
2021/07/11 01:22:57;;;;;;;5.57;2.90;;;;;;;30.90;25.17;94337.97;5092986;28;20103;-53
2021/07/11 01:25:30;;;;;;;2.95;2.60;;;;;;;30.65;26.03;94343.88;5082924;28;20059;-53
2021/07/11 01:27:57;;;;;;;4.75;2.95;;;;;;;30.71;25.79;94346.06;5093419;28;20051;-52
2021/07/11 01:30:25;;;;;;;3.50;2.72;;;;;;;30.26;26.32;94346.50;5076405;28;20046;-51
2021/07/11 01:32:52;;;;;;;3.75;2.97;;;;;;;29.93;26.33;94342.81;5091632;28;20434;-53
2021/07/11 01:35:19;;;;;;;4.90;2.70;;;;;;;30.16;26.59;94350.91;5092873;28;20055;-54
2021/07/11 01:37:47;;;;;;;3.20;2.72;;;;;;;30.38;26.20;94351.28;5093272;28;20044;-53
2021/07/11 01:40:16;;;;;;;3.88;2.60;;;;;;;30.25;26.46;94347.69;5076342;28;20323;-54
2021/07/11 01:42:43;;;;;;;4.65;2.92;;;;;;;30.50;26.29;94348.00;5076054;28;20056;-51
2021/07/11 01:45:12;;;;;;;9.55;2.97;;;;;;;29.51;27.45;94352.31;5092297;28;20051;-51
2021/07/11 01:47:40;;;;;;;3.63;2.85;;;;;;;30.39;26.31;94358.19;5094102;28;20434;-52
2021/07/11 01:50:11;;;;;;;4.05;2.92;;;;;;;29.58;27.50;94344.88;5091973;28;20048;-52
2021/07/11 01:52:40;;;;;;;4.30;3.22;;;;;;;29.52;27.31;94351.16;5094155;28;20048;-52
2021/07/11 01:55:10;;;;;;;5.32;2.72;;;;;;;29.49;27.34;94346.59;5083970;28;20052;-53
2021/07/11 01:57:39;;;;;;;4.72;3.13;;;;;;;29.60;27.46;94352.56;5082959;28;20049;-53
2021/07/11 02:00:09;;;;;;;5.22;2.80;;;;;;;29.58;27.55;94354.91;5072744;28;20043;-52
2021/07/11 02:02:49;;;;;;;4.40;3.10;;;;;;;29.60;27.41;94361.41;5088646;28;20036;-52
2021/07/11 02:05:29;;;;;;;4.13;3.08;;;;;;;29.33;27.81;94366.75;5091421;28;20048;-51
2021/07/11 02:08:00;;;;;;;3.60;3.05;;;;;;;29.65;27.32;94360.16;5095991;28;20048;-53
2021/07/11 02:10:29;;;;;;;5.25;3.10;;;;;;;29.53;27.70;94358.06;5096312;28;20370;-52
2021/07/11 02:13:17;;;;;;;5.47;3.05;;;;;;;29.91;27.10;94364.75;5096168;28;20070;-52
2021/07/11 02:15:46;;;;;;;4.18;3.08;;;;;;;30.06;26.62;94368.78;5097306;28;20481;-52
2021/07/11 02:18:16;;;;;;;4.38;3.08;;;;;;;29.71;26.69;94374.72;5096418;28;20048;-50
2021/07/11 02:20:50;;;;;;;3.70;3.22;;;;;;;29.73;26.75;94361.59;5095526;28;20055;-55
2021/07/11 02:23:24;;;;;;;4.32;3.20;;;;;;;29.61;26.90;94378.31;5080173;28;20040;-51
2021/07/11 02:25:53;;;;;;;3.35;2.80;;;;;;;29.75;26.93;94384.28;5115188;28;20050;-52
2021/07/11 02:28:22;;;;;;;3.67;3.30;;;;;;;29.58;26.60;94381.84;5079606;28;20056;-53
2021/07/11 02:30:55;;;;;;;3.25;2.70;;;;;;;29.66;26.82;94375.16;5095720;28;20462;-51
2021/07/11 02:33:36;;;;;;;4.90;3.05;;;;;;;28.75;28.24;94375.94;5086175;28;20365;-52
2021/07/11 02:36:25;;;;;;;4.47;3.20;;;;;;;28.66;28.55;94379.09;5062941;28;20048;-52
2021/07/11 02:39:12;;;;;;;5.95;3.45;;;;;;;29.43;27.40;94379.31;5096787;28;20048;-52
2021/07/11 02:41:48;;;;;;;4.63;3.22;;;;;;;29.27;27.90;94373.78;5101696;28;20051;-51
2021/07/11 02:44:16;;;;;;;4.88;2.95;;;;;;;29.44;27.27;94377.41;5099452;28;20058;-52
2021/07/11 02:46:51;;;;;;;3.90;3.33;;;;;;;28.79;28.39;94382.78;5099379;28;20047;-52
2021/07/11 02:49:24;;;;;;;4.65;3.15;;;;;;;28.43;28.89;94393.16;5098697;28;20047;-50
2021/07/11 02:51:58;;;;;;;4.60;3.05;;;;;;;29.01;28.44;94393.34;5116497;28;20047;-53
2021/07/11 02:54:47;;;;;;;3.97;3.03;;;;;;;28.91;28.22;94394.22;5088512;28;20043;-53
2021/07/11 02:57:19;;;;;;;3.25;2.97;;;;;;;28.98;28.02;94394.13;5116477;28;20051;-51
2021/07/11 02:59:49;;;;;;;3.92;3.25;;;;;;;28.90;28.18;94392.72;5098895;28;20036;-52
2021/07/11 03:02:18;;;;;;;4.85;3.13;;;;;;;29.07;28.16;94397.09;5098336;28;20047;-52
2021/07/11 03:04:46;;;;;;;6.22;3.03;;;;;;;29.02;28.37;94405.63;5081458;28;20043;-52
2021/07/11 03:07:15;;;;;;;6.90;3.47;;;;;;;28.86;28.54;94406.19;5098427;28;20051;-52
2021/07/11 03:09:42;;;;;;;7.82;3.00;;;;;;;29.07;28.36;94402.47;5098702;28;20047;-51
2021/07/11 03:12:13;;;;;;;4.80;3.45;;;;;;;28.75;28.77;94402.81;5098423;28;20048;-52
2021/07/11 03:14:41;;;;;;;6.20;3.60;;;;;;;29.24;28.43;94406.88;5098744;28;20051;-50
2021/07/11 03:17:10;;;;;;;9.85;3.70;;;;;;;29.01;28.75;94414.84;5081494;28;20480;-55
2021/07/11 03:19:39;;;;;;;5.40;3.53;;;;;;;29.06;28.26;94406.34;5098473;28;20047;-52
2021/07/11 03:22:11;;;;;;;5.50;3.67;;;;;;;29.33;28.21;94414.47;5081648;28;20043;-52
2021/07/11 03:24:40;;;;;;;5.85;3.75;;;;;;;29.46;27.92;94405.47;5105753;28;20472;-51
2021/07/11 03:27:10;;;;;;;4.90;3.60;;;;;;;29.19;27.73;94409.28;5108285;28;20058;-51
2021/07/11 03:30:02;;;;;;;3.63;3.08;;;;;;;28.51;28.58;94404.59;5097151;28;20051;-51
2021/07/11 03:32:59;;;;;;;5.45;3.15;;;;;;;28.77;28.97;94408.56;5115719;28;20043;-53
2021/07/11 03:35:52;;;;;;;5.20;3.38;;;;;;;29.15;28.31;94406.63;5081450;28;20081;-53
2021/07/11 03:38:41;;;;;;;4.05;3.08;;;;;;;28.85;29.17;94410.78;5097969;28;20438;-53
2021/07/11 03:41:15;;;;;;;4.72;3.58;;;;;;;29.43;28.39;94411.63;5080864;28;20047;-52
2021/07/11 03:43:48;;;;;;;4.82;3.90;;;;;;;28.94;29.15;94415.72;5115867;28;20465;-52
2021/07/11 03:46:15;;;;;;;5.72;3.75;;;;;;;29.03;28.79;94407.91;5115737;28;20047;-51
2021/07/11 03:48:54;;;;;;;6.00;3.60;;;;;;;29.15;28.96;94414.69;5081290;28;20058;-51
2021/07/11 03:51:28;;;;;;;6.90;3.47;;;;;;;29.36;28.62;94414.41;5115763;28;20054;-51
2021/07/11 03:53:57;;;;;;;4.72;3.25;;;;;;;29.19;29.15;94410.03;5099527;28;20052;-52
2021/07/11 03:56:30;;;;;;;4.78;3.20;;;;;;;28.99;29.31;94422.56;5113921;28;20048;-51
2021/07/11 03:58:59;;;;;;;6.07;3.28;;;;;;;28.97;29.44;94419.53;5115748;28;20393;-52
2021/07/11 04:01:29;;;;;;;6.22;3.35;;;;;;;29.33;28.82;94423.28;5115496;28;20051;-52
2021/07/11 04:03:57;;;;;;;4.50;3.58;;;;;;;29.12;28.97;94427.00;5115065;28;20056;-51
2021/07/11 04:06:26;;;;;;;6.72;3.85;;;;;;;29.15;28.88;94420.09;5080600;28;20047;-53
2021/07/11 04:09:00;;;;;;;5.22;3.47;;;;;;;29.71;27.16;94417.81;5115681;28;20051;-54
2021/07/11 04:11:27;;;;;;;5.50;3.80;;;;;;;29.52;27.60;94429.25;5096609;28;20051;-51
2021/07/11 04:13:54;;;;;;;6.45;3.78;;;;;;;29.37;28.04;94429.38;5092083;28;20056;-52
2021/07/11 04:16:24;;;;;;;6.07;3.78;;;;;;;29.36;28.45;94433.25;5096611;28;20039;-52
2021/07/11 04:18:54;;;;;;;4.35;3.30;;;;;;;29.31;28.52;94433.69;5096668;28;20058;-51
2021/07/11 04:21:23;;;;;;;5.53;3.47;;;;;;;29.27;28.40;94426.84;5097656;28;20043;-52
2021/07/11 04:23:51;;;;;;;6.53;3.75;;;;;;;29.22;29.20;94441.53;5098744;28;20054;-53
2021/07/11 04:26:19;;;;;;;9.43;3.83;;;;;;;29.21;29.29;94433.84;5115210;28;20043;-52
2021/07/11 04:28:48;;;;;;;8.52;4.07;;;;;;;29.02;29.94;94444.06;5096986;28;20043;-52
2021/07/11 04:31:15;;;;;;;5.47;3.40;;;;;;;29.20;29.41;94443.84;5096745;28;20052;-50
2021/07/11 04:33:42;;;;;;;6.85;3.40;;;;;;;29.26;29.39;94442.22;5096485;28;20055;-54
2021/07/11 04:36:09;;;;;;;5.05;3.70;;;;;;;29.16;29.44;94443.91;5115718;28;20054;-51
2021/07/11 04:38:36;;;;;;;3.83;3.30;;;;;;;29.31;29.63;94443.72;5114420;28;20055;-52
2021/07/11 04:41:06;;;;;;;4.97;3.53;;;;;;;29.17;29.74;94442.72;5114817;28;20070;-50
2021/07/11 04:43:33;;;;;;;6.68;3.80;;;;;;;29.07;30.00;94445.53;5114298;28;20066;-56
2021/07/11 04:46:00;;;;;;;4.55;3.45;;;;;;;29.32;29.56;94446.00;5115178;28;20051;-52
2021/07/11 04:48:27;;;;;;;4.63;3.80;;;;;;;28.95;29.41;94438.00;5114949;28;20047;-53
2021/07/11 04:50:54;;;;;;;6.75;3.38;;;;;;;29.01;29.09;94444.47;5114910;28;20055;-53
2021/07/11 04:53:21;;;;;;;5.13;3.50;;;;;;;29.33;29.28;94442.13;5096264;28;20059;-50
2021/07/11 04:55:49;;;;;;;4.10;3.67;;;;;;;29.51;29.02;94451.97;5114991;28;20043;-51
2021/07/11 04:58:17;;;;;;;6.78;3.40;;;;;;;29.20;29.15;94443.84;5114608;28;20047;-51
2021/07/11 05:00:44;;;;;;;5.80;3.90;;;;;;;29.78;28.07;94447.34;5114802;28;20040;-53
2021/07/11 05:03:11;;;;;;;4.10;3.70;;;;;;;30.06;27.74;94449.66;5113402;28;20044;-51
2021/07/11 05:05:38;;;;;;;6.07;3.35;;;;;;;29.36;29.33;94441.31;5094601;28;20051;-51
2021/07/11 05:08:07;;;;;;;5.93;3.60;;;;;;;29.39;29.71;94443.22;5109049;28;20496;-50
2021/07/11 05:10:34;;;;;;;5.05;3.67;;;;;;;29.60;29.51;94441.44;5113612;28;20058;-51
2021/07/11 05:13:01;;;;;;;5.53;3.78;;;;;;;29.51;29.09;94441.19;5113695;28;20035;-51
2021/07/11 05:15:28;;;;;;;5.40;3.85;;;;;;;30.07;28.58;94445.78;5114646;28;20051;-52
2021/07/11 05:17:55;;;;;;;6.68;3.50;;;;;;;30.32;28.22;94433.84;5113979;28;20039;-52
2021/07/11 05:20:22;;;;;;;6.53;3.40;;;;;;;30.26;28.04;94446.25;5102262;28;20047;-51
2021/07/11 05:22:49;;;;;;;4.97;3.30;;;;;;;30.46;28.33;94436.31;5099940;28;20048;-50
2021/07/11 05:25:16;;;;;;;4.93;3.70;;;;;;;30.04;28.46;94438.50;5113108;28;20043;-52
2021/07/11 05:27:43;;;;;;;4.03;3.63;;;;;;;30.63;27.92;94434.47;5114166;28;20043;-53
2021/07/11 05:30:11;;;;;;;7.45;4.15;;;;;;;30.82;27.68;94433.00;5113973;28;20048;-51
2021/07/11 05:32:38;;;;;;;4.18;3.78;;;;;;;30.60;27.23;94436.06;5114658;28;20048;-53
2021/07/11 05:35:06;;;;;;;5.05;4.35;;;;;;;30.87;26.88;94437.91;5094740;28;20107;-52
2021/07/11 05:37:33;;;;;;;4.00;3.60;;;;;;;30.77;27.57;94436.16;5094198;28;20047;-52
2021/07/11 05:40:00;;;;;;;5.80;3.95;;;;;;;30.75;27.42;94441.22;5094116;28;20055;-52
2021/07/11 05:42:27;;;;;;;6.32;3.80;;;;;;;30.90;27.01;94439.75;5087381;28;20060;-52
2021/07/11 05:44:54;;;;;;;5.57;3.80;;;;;;;31.06;26.63;94441.78;5097145;28;20062;-53
2021/07/11 05:47:21;;;;;;;8.00;4.32;;;;;;;30.85;27.09;94442.94;5096995;28;20066;-53
2021/07/11 05:49:49;;;;;;;5.25;3.88;;;;;;;30.77;26.88;94447.72;5097993;28;20401;-53
2021/07/11 05:52:16;;;;;;;6.88;3.92;;;;;;;30.89;27.05;94443.63;5097677;28;20044;-53
2021/07/11 05:54:43;;;;;;;4.05;3.72;;;;;;;31.24;26.47;94447.63;5084974;28;20055;-50
2021/07/11 05:57:10;;;;;;;6.15;4.30;;;;;;;31.71;25.98;94442.78;5077502;28;20048;-51
2021/07/11 05:59:37;;;;;;;10.68;4.32;;;;;;;31.49;26.25;94439.00;5076604;28;20075;-53
2021/07/11 06:02:04;;;;;;;5.63;4.20;;;;;;;31.32;26.80;94434.75;5076629;28;20040;-51
2021/07/11 06:04:31;;;;;;;8.27;4.13;;;;;;;31.68;27.35;94440.13;5097004;28;20433;-52
2021/07/11 06:06:58;;;;;;;5.93;4.30;;;;;;;31.66;26.85;94439.81;5096971;28;20052;-53
2021/07/11 06:09:25;;;;;;;7.53;4.85;;;;;;;31.67;26.29;94441.31;5096634;28;20058;-50
2021/07/11 06:11:53;;;;;;;7.75;4.45;;;;;;;31.72;26.19;94436.19;5087133;28;20048;-52
2021/07/11 06:14:20;;;;;;;7.15;4.40;;;;;;;31.96;26.30;94426.00;5094710;28;20409;-50
2021/07/11 06:16:47;;;;;;;5.97;4.28;;;;;;;32.15;25.86;94421.72;5097565;28;20464;-55
2021/07/11 06:19:15;;;;;;;6.15;4.35;;;;;;;32.76;25.57;94429.09;5097154;28;20048;-51
2021/07/11 06:21:45;;;;;;;6.65;4.30;;;;;;;32.53;25.33;94434.72;5079269;28;20435;-53
2021/07/11 06:24:12;;;;;;;4.68;4.13;;;;;;;32.81;25.59;94436.72;5092692;28;20047;-53
2021/07/11 06:26:39;;;;;;;6.00;4.32;;;;;;;32.63;25.33;94439.88;5096580;28;20055;-50
2021/07/11 06:29:06;;;;;;;7.07;4.75;;;;;;;32.88;25.31;94439.25;5097169;28;20458;-56
2021/07/11 06:31:33;;;;;;;4.10;3.70;;;;;;;33.19;25.38;94430.66;5095759;28;20044;-51
2021/07/11 06:34:01;;;;;;;6.65;3.95;;;;;;;33.63;24.45;94435.22;5096294;28;20391;-52
2021/07/11 06:36:31;;;;;;;8.30;4.68;;;;;;;33.61;24.54;94429.47;5076414;28;20051;-51
2021/07/11 06:38:59;;;;;;;6.07;4.63;;;;;;;33.56;24.64;94432.69;5076716;28;20049;-54
2021/07/11 06:41:26;;;;;;;7.15;3.95;;;;;;;34.01;24.12;94429.03;5076331;28;20052;-55
2021/07/11 06:43:53;;;;;;;5.38;3.90;;;;;;;34.09;23.77;94418.72;5093489;28;20047;-56
2021/07/11 06:46:20;;;;;;;6.25;4.20;;;;;;;34.08;24.00;94431.53;5096053;28;20062;-53
2021/07/11 06:48:47;;;;;;;5.22;3.88;;;;;;;34.23;23.19;94427.16;5096723;28;20040;-53
2021/07/11 06:51:15;;;;;;;5.40;4.90;;;;;;;34.17;23.90;94420.03;5095649;28;20114;-52
2021/07/11 06:53:42;;;;;;;4.93;3.83;;;;;;;34.41;22.77;94420.44;5094974;28;20358;-53
2021/07/11 06:56:09;;;;;;;5.00;4.50;;;;;;;34.32;23.06;94421.81;5096321;28;20366;-55
2021/07/11 06:58:36;;;;;;;4.88;3.90;;;;;;;34.65;23.04;94405.28;5095889;28;20055;-52
2021/07/11 07:01:03;;;;;;;5.45;4.18;;;;;;;34.76;22.93;94408.38;5078600;28;20047;-54
2021/07/11 07:03:30;;;;;;;4.82;3.72;;;;;;;34.74;22.87;94413.50;5095356;28;20055;-51
2021/07/11 07:05:57;;;;;;;4.88;4.05;;;;;;;34.66;22.28;94412.22;5095950;28;20044;-52
2021/07/11 07:08:25;;;;;;;5.80;3.63;;;;;;;34.47;21.41;94415.97;5095730;28;20051;-52
2021/07/11 07:10:53;;;;;;;6.70;3.75;;;;;;;34.25;21.37;94416.66;5095456;28;20058;-56
2021/07/11 07:13:21;;;;;;;6.43;3.45;;;;;;;34.63;21.34;94407.69;5094451;28;20059;-53
2021/07/11 07:15:48;;;;;;;4.38;3.22;;;;;;;34.74;20.95;94408.06;5096019;28;20044;-52
2021/07/11 07:18:16;;;;;;;6.00;3.33;;;;;;;34.90;21.06;94405.19;5096239;28;20040;-52
2021/07/11 07:20:43;;;;;;;4.32;3.30;;;;;;;35.01;20.96;94399.38;5096168;28;20047;-52
2021/07/11 07:23:10;;;;;;;7.15;3.60;;;;;;;34.97;21.32;94408.88;5081581;28;20048;-51
2021/07/11 07:25:37;;;;;;;5.10;3.20;;;;;;;34.98;21.01;94404.94;5095365;28;20369;-52
2021/07/11 07:28:04;;;;;;;4.22;3.20;;;;;;;35.24;20.31;94406.31;5095725;28;20051;-53
2021/07/11 07:30:31;;;;;;;4.03;3.00;;;;;;;34.81;20.20;94396.94;5095895;28;20055;-52
2021/07/11 07:32:58;;;;;;;3.55;3.00;;;;;;;35.11;19.90;94403.66;5096029;28;20040;-52
2021/07/11 07:35:25;;;;;;;4.38;2.83;;;;;;;35.22;19.84;94408.72;5095835;28;20401;-54
2021/07/11 07:37:52;;;;;;;6.95;2.90;;;;;;;35.32;19.18;94407.56;5095965;28;20050;-53
2021/07/11 07:40:21;;;;;;;3.38;2.78;;;;;;;35.14;19.43;94397.38;5095806;28;20643;-52
2021/07/11 07:42:50;;;;;;;3.10;2.80;;;;;;;35.28;18.88;94411.63;5095606;28;20048;-54
2021/07/11 07:45:18;;;;;;;4.40;3.10;;;;;;;35.44;18.85;94398.59;5095588;28;20052;-54
2021/07/11 07:47:45;;;;;;;5.93;2.85;;;;;;;35.76;18.92;94396.63;5095943;28;20051;-54
2021/07/11 07:50:14;;;;;;;3.58;2.85;;;;;;;35.81;18.92;94406.91;5078958;28;20055;-53
2021/07/11 07:52:41;;;;;;;4.93;2.92;;;;;;;35.29;18.25;94407.69;5076129;28;20077;-53
2021/07/11 07:55:09;;;;;;;5.80;2.72;;;;;;;35.37;17.45;94415.16;5094644;28;20063;-53
2021/07/11 07:57:36;;;;;;;4.85;2.72;;;;;;;35.36;17.50;94397.34;5095407;28;20442;-54
2021/07/11 08:00:10;;;;;;;4.05;2.40;;;;;;;35.41;17.59;94415.06;5094369;28;20054;-53
2021/07/11 08:02:40;;;;;;;5.88;2.70;;;;;;;35.19;18.13;94404.94;5095305;28;20040;-53
2021/07/11 08:05:08;;;;;;;8.02;2.70;;;;;;;35.24;18.69;94401.63;5093953;28;20351;-52
2021/07/11 08:07:35;;;;;;;6.13;3.03;;;;;;;35.47;18.47;94414.03;5095316;28;20044;-55
2021/07/11 08:10:05;;;;;;;6.70;2.85;;;;;;;35.37;18.41;94401.56;5094117;28;20047;-54
2021/07/11 08:12:32;;;;;;;3.65;3.10;;;;;;;35.47;18.64;94395.00;5094175;28;20043;-53
2021/07/11 08:14:59;;;;;;;3.40;2.97;;;;;;;35.31;19.10;94400.63;5093753;28;20048;-55
2021/07/11 08:17:26;;;;;;;6.20;3.13;;;;;;;35.61;18.61;94398.38;5095326;28;20357;-54
2021/07/11 08:19:55;;;;;;;5.05;2.97;;;;;;;35.60;19.64;94394.13;5094376;28;20058;-54
2021/07/11 08:22:22;;;;;;;4.25;3.28;;;;;;;35.88;19.66;94398.50;5095087;28;20460;-54
2021/07/11 08:24:49;;;;;;;5.40;3.50;;;;;;;35.53;20.00;94390.50;5094136;28;20050;-55
2021/07/11 08:27:16;;;;;;;3.83;3.38;;;;;;;35.98;19.50;94391.88;5093777;28;20039;-51
2021/07/11 08:29:43;;;;;;;5.60;3.03;;;;;;;35.92;19.39;94403.81;5094908;28;20364;-54
2021/07/11 08:32:10;;;;;;;5.95;2.97;;;;;;;35.98;19.06;94399.28;5077101;28;20044;-54
2021/07/11 08:34:37;;;;;;;3.80;3.50;;;;;;;35.67;19.52;94400.06;5094427;28;20047;-54
2021/07/11 08:37:05;;;;;;;5.18;3.00;;;;;;;36.37;19.02;94389.56;5094991;28;20051;-55
2021/07/11 08:39:32;;;;;;;5.03;3.33;;;;;;;35.68;19.12;94400.84;5094586;28;20058;-56
2021/07/11 08:41:59;;;;;;;4.00;2.78;;;;;;;35.97;18.64;94395.81;5094670;28;20079;-53
2021/07/11 08:44:26;;;;;;;3.75;3.05;;;;;;;36.10;18.46;94393.72;5094539;28;20052;-55
2021/07/11 08:46:54;;;;;;;4.80;3.10;;;;;;;36.39;18.15;94403.47;5094255;28;20048;-53
2021/07/11 08:49:23;;;;;;;4.82;2.85;;;;;;;35.86;18.81;94389.28;5094403;28;20043;-53
2021/07/11 08:51:56;;;;;;;3.70;2.90;;;;;;;36.34;17.98;94390.47;5094712;28;20056;-54
2021/07/11 08:54:24;;;;;;;4.22;3.25;;;;;;;35.89;18.78;94389.13;5093805;28;20051;-53
2021/07/11 08:56:57;;;;;;;19.35;14.32;;;;;;;36.47;18.09;94391.09;5094325;28;20043;-53
2021/07/11 08:59:27;;;;;;;11.55;9.98;;;;;;;36.49;17.64;94388.69;5094379;28;20043;-52
2021/07/11 09:01:54;;;;;;;6.90;5.22;;;;;;;36.39;17.76;94378.97;5094506;28;20086;-53
2021/07/11 09:04:22;;;;;;;7.13;4.95;;;;;;;36.96;17.66;94373.88;5094413;28;20040;-54
2021/07/11 09:06:53;;;;;;;6.00;4.45;;;;;;;36.41;18.20;94384.72;5093401;28;20052;-54
2021/07/11 09:09:27;;;;;;;8.50;4.88;;;;;;;36.63;17.71;94388.06;5094168;28;20047;-54
2021/07/11 09:12:06;;;;;;;7.05;3.70;;;;;;;36.56;17.58;94385.66;5094509;28;20063;-53
2021/07/11 09:14:41;;;;;;;3.78;3.13;;;;;;;36.21;18.35;94378.94;5094144;28;20051;-55
2021/07/11 09:17:09;;;;;;;5.80;3.55;;;;;;;36.64;17.75;94367.78;5098383;28;20047;-54
2021/07/11 09:19:42;;;;;;;3.97;2.90;;;;;;;36.51;17.51;94377.34;5097393;28;20044;-53
2021/07/11 09:22:18;;;;;;;6.03;2.70;;;;;;;36.67;16.92;94382.47;5098706;28;20051;-57
2021/07/11 09:25:00;;;;;;;4.45;2.83;;;;;;;36.50;17.71;94376.56;5079536;28;20048;-53
2021/07/11 09:27:36;;;;;;;3.42;3.00;;;;;;;36.38;17.62;94380.94;5098242;28;20382;-57
2021/07/11 09:30:09;;;;;;;3.88;2.65;;;;;;;36.54;17.16;94370.97;5096915;28;20362;-54
2021/07/11 09:32:37;;;;;;;5.07;2.90;;;;;;;36.05;17.40;94380.72;5098312;28;20044;-53
2021/07/11 09:35:22;;;;;;;2.80;2.60;;;;;;;36.29;16.81;94382.88;5097849;28;20412;-56
2021/07/11 09:37:58;;;;;;;14.35;2.92;;;;;;;36.69;17.35;94364.47;5097908;28;20056;-53
2021/07/11 09:40:26;;;;;;;3.00;2.63;;;;;;;36.53;17.53;94364.78;5097114;28;20043;-55
2021/07/11 09:42:55;;;;;;;3.67;2.80;;;;;;;36.15;17.75;94374.06;5114274;28;20044;-54
2021/07/11 09:45:27;;;;;;;6.30;2.80;;;;;;;36.37;17.13;94367.78;5116480;28;20043;-56
2021/07/11 09:48:05;;;;;;;5.68;2.78;;;;;;;36.87;16.74;94366.44;5118495;28;20044;-55
2021/07/11 09:50:33;;;;;;;5.70;3.00;;;;;;;36.74;16.86;94363.88;5116995;28;20043;-53
2021/07/11 09:53:00;;;;;;;2.95;2.53;;;;;;;36.76;16.96;94360.69;5117462;28;20370;-52
2021/07/11 09:55:29;;;;;;;3.38;3.03;;;;;;;36.54;16.52;94360.84;5116060;28;20043;-53
2021/07/11 09:58:05;;;;;;;4.93;2.80;;;;;;;36.56;16.79;94363.13;5117471;28;20055;-55
2021/07/11 10:00:36;;;;;;;3.55;2.60;;;;;;;36.62;16.23;94367.50;5117447;28;20044;-53
2021/07/11 10:03:05;;;;;;;4.32;2.58;;;;;;;36.34;14.63;94353.13;5117251;28;20043;-51
2021/07/11 10:05:33;;;;;;;5.35;2.63;;;;;;;36.48;14.69;94357.22;5117632;28;20088;-52
2021/07/11 10:08:01;;;;;;;3.17;2.40;;;;;;;36.46;15.39;94348.75;5117591;28;20054;-54
2021/07/11 10:10:32;;;;;;;2.75;2.42;;;;;;;36.50;15.63;94357.53;5117216;28;20039;-55
2021/07/11 10:13:00;;;;;;;4.38;2.20;;;;;;;36.43;15.58;94360.53;5116734;28;20039;-54
2021/07/11 10:15:31;;;;;;;3.72;2.60;;;;;;;36.23;15.81;94354.75;5117340;28;20389;-53
2021/07/11 10:18:04;;;;;;;3.35;2.30;;;;;;;36.57;15.56;94349.03;5117941;28;20396;-54
2021/07/11 10:20:55;;;;;;;2.88;2.60;;;;;;;36.35;16.46;94345.72;5117747;28;20051;-53
2021/07/11 10:23:28;;;;;;;4.13;2.60;;;;;;;36.55;16.73;94343.31;5115826;28;20058;-55
2021/07/11 10:25:59;;;;;;;5.38;2.40;;;;;;;36.45;16.74;94336.34;5117476;28;20043;-54
2021/07/11 10:28:32;;;;;;;2.58;2.38;;;;;;;36.20;17.01;94344.78;5115991;28;20050;-53
2021/07/11 10:30:59;;;;;;;3.40;3.10;;;;;;;36.20;16.90;94333.91;5117521;28;20040;-54
2021/07/11 10:33:27;;;;;;;3.70;2.78;;;;;;;36.21;16.53;94343.56;5116080;28;20054;-54
2021/07/11 10:36:03;;;;;;;3.33;2.80;;;;;;;36.27;16.23;94336.31;5115531;28;20339;-54
2021/07/11 10:38:38;;;;;;;3.13;2.78;;;;;;;36.14;16.67;94339.91;5116706;28;20055;-53
2021/07/11 10:41:10;;;;;;;3.38;2.50;;;;;;;36.42;16.73;94326.34;5116355;28;20055;-53
2021/07/11 10:43:37;;;;;;;;;;;;;;;36.45;16.22;94317.31;5118063;28;20476;-54
2021/07/11 10:46:04;;;;;;;6.15;2.78;;;;;;;36.78;16.49;94333.00;5117138;28;20294;-54
2021/07/11 10:48:31;;;;;;;2.83;2.40;;;;;;;36.34;16.50;94320.47;5116407;28;20040;-57
2021/07/11 10:50:59;;;;;;;3.80;2.95;;;;;;;36.52;16.54;94310.78;5117208;28;20055;-55
2021/07/11 10:53:34;;;;;;;3.28;2.88;;;;;;;36.55;15.84;94307.16;5115642;28;20045;-53
2021/07/11 10:56:02;;;;;;;3.35;2.50;;;;;;;36.87;15.68;94317.41;5107929;28;20489;-56
2021/07/11 10:58:39;;;;;;;3.28;2.60;;;;;;;36.53;15.48;94325.91;5116878;28;20121;-53
2021/07/11 11:01:20;;;;;;;2.95;2.55;;;;;;;36.55;15.63;94307.91;5117072;28;20062;-53
2021/07/11 11:03:52;;;;;;;4.22;2.65;;;;;;;36.67;15.72;94303.50;5117070;28;20044;-53
2021/07/11 11:06:19;;;;;;;3.05;2.65;;;;;;;36.69;15.45;94312.72;5116462;28;20051;-53
2021/07/11 11:08:47;;;;;;;5.10;2.40;;;;;;;36.86;15.12;94305.00;5116747;28;20365;-54
2021/07/11 11:11:15;;;;;;;2.88;2.58;;;;;;;36.83;15.10;94305.19;5116577;28;20047;-53
2021/07/11 11:13:42;;;;;;;2.78;2.22;;;;;;;36.43;15.78;94295.22;5116856;28;20515;-53
2021/07/11 11:16:20;;;;;;;2.70;2.05;;;;;;;36.57;14.79;94316.38;5115278;28;20047;-54
2021/07/11 11:18:54;;;;;;;2.50;2.30;;;;;;;36.61;14.42;94289.75;5115556;28;20040;-53
2021/07/11 11:21:23;;;;;;;3.65;2.10;;;;;;;36.81;14.61;94285.81;5115503;28;20113;-58
2021/07/11 11:23:53;;;;;;;3.38;2.40;;;;;;;36.63;15.22;94281.88;5116156;28;20047;-56
2021/07/11 11:26:25;;;;;;;5.40;2.60;;;;;;;36.85;14.38;94286.41;5115647;27;20349;-55
2021/07/11 11:28:55;;;;;;;2.55;2.10;;;;;;;36.53;14.36;94298.69;5115942;28;20055;-55
2021/07/11 11:31:32;;;;;;;2.55;2.10;;;;;;;36.41;13.98;94284.03;5116317;28;20040;-55
2021/07/11 11:34:07;;;;;;;2.45;2.20;;;;;;;36.21;14.42;94278.28;5115687;28;20063;-53
2021/07/11 11:36:39;;;;;;;2.45;2.25;;;;;;;35.83;14.48;94282.16;5115870;28;20047;-53
2021/07/11 11:39:12;;;;;;;2.60;2.40;;;;;;;36.49;13.80;94277.06;5116201;28;20047;-53
2021/07/11 11:41:41;;;;;;;3.88;2.30;;;;;;;36.65;14.03;94271.28;5115231;28;20046;-54
2021/07/11 11:44:14;;;;;;;2.72;2.05;;;;;;;36.28;14.06;94267.84;5115437;28;20063;-53
2021/07/11 11:46:43;;;;;;;5.57;2.30;;;;;;;36.40;14.05;94268.91;5114803;28;20054;-53